createdAt,value
2024-05-09T00:02:36.249Z,96.26
2024-05-09T00:05:26.270Z,96.74
2024-05-09T00:08:13.273Z,96.38
2024-05-09T00:10:54.275Z,96.28
2024-05-09T00:13:48.227Z,96.40
2024-05-09T00:16:35.186Z,96.38
2024-05-09T00:19:08.396Z,96.16
2024-05-09T00:21:55.181Z,96.59
2024-05-09T00:24:28.300Z,96.49
2024-05-09T00:27:22.192Z,96.73
2024-05-09T00:30:24.209Z,96.73
2024-05-09T00:33:18.384Z,96.67
2024-05-09T00:35:52.285Z,96.87
2024-05-09T00:38:39.182Z,97.12
2024-05-09T00:41:12.322Z,97.14
2024-05-09T00:43:59.243Z,97.27
2024-05-09T00:46:32.503Z,96.86
2024-05-09T00:49:19.398Z,97.88
2024-05-09T00:51:53.290Z,97.75
2024-05-09T00:54:40.212Z,98.11
2024-05-09T00:57:20.192Z,98.01
2024-05-09T01:00:22.650Z,98.07
2024-05-09T01:03:17.434Z,98.26
2024-05-09T01:05:51.408Z,98.34
2024-05-09T01:08:38.321Z,98.65
2024-05-09T01:11:12.434Z,98.32
2024-05-09T01:13:59.252Z,98.77
2024-05-09T01:16:32.311Z,98.83
2024-05-09T01:19:29.354Z,98.58
2024-05-09T01:22:04.621Z,98.58
2024-05-09T01:24:51.327Z,98.81
2024-05-09T01:27:25.375Z,98.54
2024-05-09T01:30:17.216Z,98.00
2024-05-09T01:32:54.584Z,98.36
2024-05-09T01:35:42.544Z,98.41
2024-05-09T01:38:19.964Z,98.21
2024-05-09T01:41:07.296Z,98.72
2024-05-09T01:43:47.246Z,98.45
2024-05-09T01:46:41.230Z,98.20
2024-05-09T01:49:28.325Z,98.64
2024-05-09T01:52:02.331Z,98.73
2024-05-09T01:54:49.243Z,98.61
2024-05-09T01:57:22.406Z,98.92
2024-05-09T02:00:10.563Z,98.62
2024-05-09T02:02:44.509Z,98.72
2024-05-09T02:05:31.332Z,98.99
2024-05-09T02:08:04.420Z,98.72
2024-05-09T02:10:51.511Z,99.28
2024-05-09T02:13:25.361Z,99.13
2024-05-09T02:16:17.221Z,99.17
2024-05-09T02:18:50.520Z,98.79
2024-05-09T02:21:41.223Z,99.45
2024-05-09T02:24:14.336Z,99.44
2024-05-09T02:27:08.239Z,100.00
2024-05-09T02:29:55.255Z,100.00
2024-05-09T02:32:28.522Z,100.00
2024-05-09T02:35:15.250Z,100.00
2024-05-09T02:37:48.438Z,100.00
2024-05-09T02:40:38.024Z,100.00
2024-05-09T02:43:14.369Z,100.00
2024-05-09T02:46:01.256Z,100.00
2024-05-09T02:48:41.473Z,100.00
2024-05-09T02:51:21.295Z,100.00
2024-05-09T02:54:01.374Z,100.00
2024-05-09T02:56:41.347Z,100.00
2024-05-09T02:59:21.538Z,100.00
2024-05-09T03:02:02.307Z,100.00
2024-05-09T03:04:42.368Z,100.00
2024-05-09T03:07:22.270Z,100.00
2024-05-09T03:10:02.691Z,100.00
2024-05-09T03:12:43.285Z,100.00
2024-05-09T03:15:23.349Z,100.00
2024-05-09T03:18:06.742Z,100.00
2024-05-09T03:20:54.332Z,100.00
2024-05-09T03:23:27.663Z,100.00
2024-05-09T03:26:14.304Z,100.00
2024-05-09T03:29:08.306Z,100.00
2024-05-09T03:31:55.341Z,100.00
2024-05-09T03:34:28.371Z,100.00
2024-05-09T03:37:15.281Z,100.00
2024-05-09T03:39:48.351Z,100.00
2024-05-09T03:42:35.264Z,100.00
2024-05-09T03:45:08.377Z,100.00
2024-05-09T03:47:55.590Z,100.00
2024-05-09T03:50:33.960Z,100.00
2024-05-09T03:53:22.306Z,100.00
2024-05-09T03:56:03.310Z,100.00
2024-05-09T03:58:57.327Z,100.00
2024-05-09T04:01:44.458Z,100.00
2024-05-09T04:04:18.432Z,100.00
2024-05-09T04:07:05.304Z,100.00
2024-05-09T04:09:38.379Z,100.00
2024-05-09T04:12:25.341Z,100.00
2024-05-09T04:14:58.396Z,100.00
2024-05-09T04:17:45.402Z,100.00
2024-05-09T04:20:29.193Z,100.00
2024-05-09T04:23:24.465Z,100.00
2024-05-09T04:25:58.416Z,100.00
2024-05-09T04:28:45.296Z,100.00
2024-05-09T04:31:18.417Z,100.00
2024-05-09T04:34:05.698Z,100.00
2024-05-09T04:36:46.295Z,100.00
2024-05-09T04:39:33.266Z,100.00
2024-05-09T04:42:13.306Z,100.00
2024-05-09T04:45:07.294Z,100.00
2024-05-09T04:47:54.457Z,100.00
2024-05-09T04:50:35.827Z,100.00
2024-05-09T04:53:25.317Z,100.00
2024-05-09T04:55:58.479Z,100.00
2024-05-09T04:58:45.313Z,100.00
2024-05-09T05:01:18.557Z,99.53
2024-05-09T05:04:05.360Z,98.32
2024-05-09T05:06:38.408Z,97.84
2024-05-09T05:09:25.302Z,96.21
2024-05-09T05:11:59.860Z,96.10
2024-05-09T05:14:47.302Z,94.90
2024-05-09T05:17:20.610Z,94.10
2024-05-09T05:20:08.635Z,93.10
2024-05-09T05:22:46.021Z,92.26
2024-05-09T05:25:33.297Z,90.89
2024-05-09T05:28:06.415Z,90.47
2024-05-09T05:30:54.296Z,89.72
2024-05-09T05:33:34.356Z,88.60
2024-05-09T05:36:28.318Z,87.78
2024-05-09T05:39:15.319Z,87.26
2024-05-09T05:41:48.420Z,85.87
2024-05-09T05:44:35.345Z,85.55
2024-05-09T05:47:12.529Z,82.78
2024-05-09T05:49:59.375Z,80.71
2024-05-09T05:52:39.417Z,78.52
2024-05-09T05:55:19.307Z,76.43
2024-05-09T05:57:59.739Z,74.87
2024-05-09T06:00:40.679Z,72.27
2024-05-09T06:03:21.472Z,71.12
2024-05-09T06:06:01.388Z,69.70
2024-05-09T06:08:41.446Z,69.88
2024-05-09T06:11:21.400Z,68.67
2024-05-09T06:14:05.518Z,66.96
2024-05-09T06:16:48.361Z,66.71
2024-05-09T06:19:28.570Z,63.65
2024-05-09T06:22:03.167Z,64.08
2024-05-09T06:24:50.351Z,62.29
2024-05-09T06:27:23.435Z,62.83
2024-05-09T06:30:21.077Z,61.70
2024-05-09T06:33:02.548Z,61.43
2024-05-09T06:35:50.500Z,60.29
2024-05-09T06:38:23.495Z,59.72
2024-05-09T06:41:12.421Z,59.53
2024-05-09T06:43:45.467Z,58.56
2024-05-09T06:46:33.357Z,57.89
2024-05-09T06:49:08.588Z,56.93
2024-05-09T06:51:55.365Z,54.96
2024-05-09T06:54:38.513Z,57.41
2024-05-09T06:57:18.390Z,55.10
2024-05-09T07:00:18.606Z,54.00
2024-05-09T07:03:16.910Z,54.63
2024-05-09T07:05:59.470Z,54.98
2024-05-09T07:08:53.379Z,52.91
2024-05-09T07:11:40.613Z,53.06
2024-05-09T07:14:14.654Z,51.87
2024-05-09T07:17:01.492Z,52.07
2024-05-09T07:19:35.563Z,51.56
2024-05-09T07:22:22.443Z,50.51
2024-05-09T07:24:55.495Z,50.21
2024-05-09T07:27:57.372Z,49.83
2024-05-09T07:30:51.391Z,49.69
2024-05-09T07:33:45.406Z,49.52
2024-05-09T07:36:32.392Z,48.02
2024-05-09T07:39:06.124Z,47.24
2024-05-09T07:41:53.382Z,46.81
2024-05-09T07:44:26.560Z,47.81
2024-05-09T07:48:28.048Z,45.91
2024-05-09T07:52:22.644Z,46.54
2024-05-09T07:53:37.289Z,46.58
2024-05-09T07:56:06.786Z,46.86
2024-05-09T07:58:53.779Z,45.57
2024-05-09T08:01:41.449Z,45.23
2024-05-09T08:04:17.837Z,44.27
2024-05-09T08:07:04.497Z,45.14
2024-05-09T08:09:46.537Z,43.76
2024-05-09T08:12:26.564Z,43.01
2024-05-09T08:15:06.432Z,40.41
2024-05-09T08:17:53.491Z,41.24
2024-05-09T08:20:33.672Z,40.37
2024-05-09T08:23:22.442Z,39.32
2024-05-09T08:25:55.824Z,38.04
2024-05-09T08:28:42.476Z,38.11
2024-05-09T08:31:15.890Z,37.18
2024-05-09T08:34:03.600Z,37.15
2024-05-09T08:36:36.866Z,36.00
2024-05-09T08:39:23.410Z,35.44
2024-05-09T08:41:56.861Z,33.84
2024-05-09T08:44:43.451Z,34.95
2024-05-09T08:47:17.215Z,34.71
2024-05-09T08:50:08.596Z,34.29
2024-05-09T08:52:51.432Z,34.48
2024-05-09T08:55:41.969Z,34.57
2024-05-09T08:58:20.910Z,34.11
2024-05-09T09:01:07.540Z,33.72
2024-05-09T09:03:48.688Z,33.41
2024-05-09T09:06:28.562Z,33.52
2024-05-09T09:09:10.475Z,32.53
2024-05-09T09:11:57.491Z,33.63
2024-05-09T09:14:37.459Z,33.07
2024-05-09T09:17:23.681Z,33.15
2024-05-09T09:20:03.538Z,32.16
2024-05-09T09:22:44.540Z,33.27
2024-05-09T09:25:24.520Z,33.23
2024-05-09T09:28:19.495Z,32.54
2024-05-09T09:31:10.459Z,33.47
2024-05-09T09:33:57.782Z,32.95
2024-05-09T09:36:46.548Z,32.71
2024-05-09T09:39:29.665Z,33.23
2024-05-09T09:42:11.525Z,34.44
2024-05-09T09:45:05.001Z,33.28
2024-05-09T09:47:48.079Z,31.81
2024-05-09T09:50:35.669Z,32.52
2024-05-09T09:53:10.430Z,32.95
2024-05-09T09:55:57.473Z,32.11
2024-05-09T09:58:34.781Z,31.75
2024-05-09T10:01:21.610Z,32.00
2024-05-09T10:03:55.077Z,31.43
2024-05-09T10:06:43.525Z,31.86
2024-05-09T10:09:18.309Z,31.57
2024-05-09T10:14:49.256Z,31.18
2024-05-09T10:17:36.674Z,30.49
2024-05-09T10:20:18.269Z,30.11
2024-05-09T10:23:08.489Z,30.44
2024-05-09T10:25:41.869Z,30.10
2024-05-09T10:28:29.538Z,31.71
2024-05-09T10:31:10.001Z,31.28
2024-05-09T10:34:01.760Z,30.51
2024-05-09T10:36:42.061Z,31.39
2024-05-09T10:39:29.632Z,31.33
2024-05-09T10:42:04.053Z,31.11
2024-05-09T10:44:53.580Z,30.82
2024-05-09T10:47:30.077Z,31.28
2024-05-09T10:50:25.068Z,32.49
2024-05-09T10:53:02.667Z,31.97
2024-05-09T10:55:49.534Z,32.82
2024-05-09T10:58:23.870Z,31.93
2024-05-09T11:01:11.685Z,31.98
2024-05-09T11:03:55.680Z,31.92
2024-05-09T11:06:38.285Z,31.65
2024-05-09T11:09:18.723Z,32.43
2024-05-09T11:11:58.690Z,31.93
2024-05-09T11:14:38.539Z,31.17
2024-05-09T11:17:18.682Z,31.04
2024-05-09T11:19:58.649Z,32.22
2024-05-09T11:22:39.682Z,31.05
2024-05-09T11:25:19.831Z,30.65
2024-05-09T11:28:14.722Z,32.50
2024-05-09T11:31:14.672Z,32.86
2024-05-09T11:33:57.709Z,32.88
2024-05-09T11:36:51.647Z,32.69
2024-05-09T11:39:38.585Z,32.85
2024-05-09T11:42:11.702Z,33.46
2024-05-09T11:44:58.549Z,33.48
2024-05-09T11:47:31.784Z,32.43
2024-05-09T11:50:26.897Z,32.92
2024-05-09T11:53:03.688Z,33.02
2024-05-09T11:55:50.602Z,32.88
2024-05-09T11:58:24.745Z,33.72
2024-05-09T12:01:14.680Z,33.91
2024-05-09T12:03:49.610Z,34.50
2024-05-09T12:06:36.560Z,35.76
2024-05-09T12:09:09.721Z,35.96
2024-05-09T12:11:50.671Z,36.48
2024-05-09T12:14:30.689Z,36.80
2024-05-09T12:17:12.692Z,37.05
2024-05-09T12:19:52.983Z,37.17
2024-05-09T12:22:32.590Z,37.38
2024-05-09T12:25:19.671Z,37.94
2024-05-09T12:27:52.708Z,38.03
2024-05-09T12:30:43.648Z,38.39
2024-05-09T12:33:26.673Z,39.35
2024-05-09T12:36:13.599Z,39.80
2024-05-09T12:38:46.776Z,40.76
2024-05-09T12:41:33.590Z,40.29
2024-05-09T12:44:06.861Z,39.75
2024-05-09T12:46:53.591Z,40.59
2024-05-09T12:49:28.973Z,41.52
2024-05-09T12:52:15.613Z,41.47
2024-05-09T12:54:55.655Z,41.24
2024-05-09T12:57:42.639Z,41.51
2024-05-09T13:00:27.108Z,41.97
2024-05-09T13:03:18.705Z,42.94
2024-05-09T13:05:52.834Z,42.43
2024-05-09T13:08:39.605Z,41.99
2024-05-09T13:11:19.707Z,42.95
2024-05-09T13:14:13.629Z,43.06
2024-05-09T13:17:00.686Z,43.40
2024-05-09T13:19:33.781Z,43.34
2024-05-09T13:22:20.666Z,43.83
2024-05-09T13:24:53.760Z,43.53
2024-05-09T13:27:47.653Z,44.04
2024-05-09T13:30:42.413Z,43.56
2024-05-09T13:33:29.790Z,43.46
2024-05-09T13:36:16.691Z,44.04
2024-05-09T13:38:56.622Z,43.71
2024-05-09T13:41:43.695Z,43.97
2024-05-09T13:44:16.976Z,44.35
2024-05-09T13:47:03.642Z,44.87
2024-05-09T13:49:37.115Z,44.60
2024-05-09T13:52:23.699Z,45.13
2024-05-09T13:54:57.080Z,44.25
2024-05-09T13:57:44.716Z,43.57
2024-05-09T14:00:40.605Z,43.99
2024-05-09T14:03:35.139Z,43.39
2024-05-09T14:06:12.834Z,42.91
2024-05-09T14:09:00.938Z,42.77
2024-05-09T14:11:34.096Z,44.09
2024-05-09T14:14:20.639Z,44.54
2024-05-09T14:16:54.202Z,45.14
2024-05-09T14:19:41.690Z,45.30
2024-05-09T14:22:15.190Z,45.19
2024-05-09T14:25:05.619Z,45.40
2024-05-09T14:27:59.738Z,44.92
2024-05-09T14:30:46.730Z,46.22
2024-05-09T14:33:31.959Z,45.46
2024-05-09T14:36:25.696Z,46.17
2024-05-09T14:39:12.666Z,45.28
2024-05-09T14:41:46.776Z,46.20
2024-05-09T14:44:33.640Z,45.98
2024-05-09T14:47:06.793Z,45.62
2024-05-09T14:49:53.717Z,45.29
2024-05-09T14:52:26.797Z,45.27
2024-05-09T14:55:13.794Z,43.57
2024-05-09T14:57:47.795Z,44.28
2024-05-09T15:00:36.320Z,45.03
2024-05-09T15:03:18.304Z,44.99
2024-05-09T15:05:58.699Z,45.67
2024-05-09T15:08:45.668Z,45.33
2024-05-09T15:11:19.053Z,44.45
2024-05-09T15:14:05.720Z,44.60
2024-05-09T15:16:39.240Z,45.60
2024-05-09T15:19:25.801Z,45.20
2024-05-09T15:21:59.093Z,46.22
2024-05-09T15:24:45.749Z,46.03
2024-05-09T15:27:32.709Z,44.92
2024-05-09T15:30:28.148Z,45.98
2024-05-09T15:33:05.565Z,45.80
2024-05-09T15:35:53.688Z,45.49
2024-05-09T15:38:27.812Z,45.86
2024-05-09T15:41:14.691Z,46.04
2024-05-09T15:43:50.288Z,45.56
2024-05-09T15:46:37.780Z,45.60
2024-05-09T15:49:17.848Z,45.74
2024-05-09T15:52:12.045Z,45.83
2024-05-09T15:54:58.719Z,45.33
2024-05-09T15:57:33.218Z,46.25
2024-05-09T16:00:28.533Z,45.83
2024-05-09T16:03:10.485Z,46.52
2024-05-09T16:05:58.839Z,47.71
2024-05-09T16:08:39.744Z,47.19
2024-05-09T16:11:27.767Z,47.04
2024-05-09T16:14:07.739Z,46.99
2024-05-09T16:17:01.797Z,47.16
2024-05-09T16:19:55.736Z,47.83
2024-05-09T16:22:42.694Z,47.62
2024-05-09T16:25:22.719Z,47.69
2024-05-09T16:28:17.786Z,47.85
2024-05-09T16:31:05.792Z,48.33
2024-05-09T16:33:40.980Z,47.88
2024-05-09T16:36:27.752Z,46.65
2024-05-09T16:39:00.864Z,46.97
2024-05-09T16:41:50.723Z,46.97
2024-05-09T16:44:35.627Z,48.18
2024-05-09T16:47:18.792Z,47.63
2024-05-09T16:49:58.889Z,47.88
2024-05-09T16:52:38.721Z,49.06
2024-05-09T16:55:19.331Z,48.35
2024-05-09T16:58:06.991Z,49.34
2024-05-09T17:00:43.417Z,49.82
2024-05-09T17:03:24.870Z,50.22
2024-05-09T17:06:12.771Z,50.19
2024-05-09T17:08:46.891Z,50.82
2024-05-09T17:11:33.776Z,51.79
2024-05-09T17:14:07.379Z,52.30
2024-05-09T17:16:54.854Z,52.17
2024-05-09T17:19:28.881Z,53.62
2024-05-09T17:22:15.953Z,53.01
2024-05-09T17:24:55.907Z,54.15
2024-05-09T17:27:49.760Z,54.44
2024-05-09T17:30:43.900Z,54.59
2024-05-09T17:33:30.902Z,55.55
2024-05-09T17:36:05.062Z,56.39
2024-05-09T17:38:51.743Z,57.25
2024-05-09T17:41:34.195Z,57.01
2024-05-09T17:44:27.744Z,58.02
2024-05-09T17:47:14.821Z,58.49
2024-05-09T17:49:47.930Z,59.03
2024-05-09T17:52:34.766Z,59.75
2024-05-09T17:55:07.910Z,60.79
2024-05-09T17:57:57.112Z,61.20
2024-05-09T18:00:40.121Z,61.60
2024-05-09T18:03:30.027Z,61.85
2024-05-09T18:06:03.972Z,62.15
2024-05-09T18:08:50.803Z,62.26
2024-05-09T18:11:26.936Z,62.33
2024-05-09T18:14:13.847Z,63.58
2024-05-09T18:16:56.316Z,63.38
2024-05-09T18:19:52.237Z,63.81
2024-05-09T18:22:45.827Z,64.11
2024-05-09T18:25:32.772Z,64.05
2024-05-09T18:28:15.087Z,64.51
2024-05-09T18:31:08.843Z,65.24
2024-05-09T18:33:58.246Z,65.25
2024-05-09T18:36:31.952Z,65.50
2024-05-09T18:39:18.791Z,66.43
2024-05-09T18:41:51.939Z,66.46
2024-05-09T18:44:41.482Z,66.27
2024-05-09T18:47:18.358Z,66.49
2024-05-09T18:50:14.946Z,67.08
2024-05-09T18:52:53.873Z,67.20
2024-05-09T18:55:43.747Z,67.94
2024-05-09T18:58:27.571Z,68.19
2024-05-09T19:01:21.870Z,68.01
2024-05-09T19:04:08.994Z,68.29
2024-05-09T19:06:42.941Z,68.41
2024-05-09T19:09:29.781Z,68.49
2024-05-09T19:12:06.423Z,68.97
2024-05-09T19:14:53.843Z,68.68
2024-05-09T19:17:26.966Z,68.66
2024-05-09T19:20:24.772Z,69.03
2024-05-09T19:23:03.002Z,69.80
2024-05-09T19:25:49.809Z,70.04
2024-05-09T19:28:29.895Z,69.69
2024-05-09T19:31:23.916Z,70.30
2024-05-09T19:34:11.853Z,70.44
2024-05-09T19:36:44.972Z,70.55
2024-05-09T19:39:31.839Z,71.00
2024-05-09T19:42:04.896Z,71.36
2024-05-09T19:44:51.785Z,71.78
2024-05-09T19:47:25.033Z,71.66
2024-05-09T19:50:16.305Z,71.85
2024-05-09T19:52:55.949Z,71.58
2024-05-09T19:55:42.912Z,72.22
2024-05-09T19:58:17.043Z,72.77
2024-05-09T20:01:03.936Z,72.46
2024-05-09T20:03:44.041Z,73.02
2024-05-09T20:06:32.848Z,72.85
2024-05-09T20:09:05.937Z,72.78
2024-05-09T20:11:52.899Z,72.81
2024-05-09T20:14:26.965Z,73.17
2024-05-09T20:17:13.811Z,73.54
2024-05-09T20:19:50.110Z,73.66
2024-05-09T20:22:36.829Z,73.32
2024-05-09T20:28:11.207Z,74.42
2024-05-09T20:30:57.870Z,74.19
2024-05-09T20:33:31.062Z,74.09
2024-05-09T20:36:17.843Z,74.50
2024-05-09T20:38:57.954Z,74.30
2024-05-09T20:41:37.835Z,74.53
2024-05-09T20:44:17.972Z,74.76
2024-05-09T20:46:57.841Z,75.39
2024-05-09T20:49:38.020Z,76.12
2024-05-09T20:52:18.896Z,76.00
2024-05-09T20:54:58.942Z,76.52
2024-05-09T20:57:38.923Z,76.46
2024-05-09T21:00:22.617Z,76.78
2024-05-09T21:03:12.022Z,76.88
2024-05-09T21:05:53.929Z,77.76
2024-05-09T21:08:33.936Z,77.78
2024-05-09T21:11:14.851Z,78.33
2024-05-09T21:13:57.012Z,78.52
2024-05-09T21:16:41.135Z,79.29
2024-05-09T21:19:20.959Z,78.77
2024-05-09T21:22:00.845Z,78.83
2024-05-09T21:24:41.025Z,79.38
2024-05-09T21:27:20.856Z,80.36
2024-05-09T21:30:22.293Z,80.45
2024-05-09T21:33:15.406Z,80.59
2024-05-09T21:35:49.971Z,80.92
2024-05-09T21:38:36.871Z,81.05
2024-05-09T21:41:10.336Z,81.33
2024-05-09T21:43:56.869Z,81.86
2024-05-09T21:46:30.154Z,82.02
2024-05-09T21:49:17.939Z,82.54
2024-05-09T21:51:50.987Z,82.46
2024-05-09T21:54:37.898Z,82.59
2024-05-09T21:57:18.883Z,82.43
2024-05-09T22:00:08.538Z,83.07
2024-05-09T22:02:50.899Z,83.02
2024-05-09T22:05:38.020Z,83.60
2024-05-09T22:08:24.873Z,83.71
2024-05-09T22:10:58.272Z,83.96
2024-05-09T22:13:44.860Z,83.72
2024-05-09T22:16:18.310Z,84.84
2024-05-09T22:19:05.187Z,84.63
2024-05-09T22:21:38.445Z,85.08
2024-05-09T22:24:24.882Z,84.63
2024-05-09T22:26:58.199Z,85.60
2024-05-09T22:29:44.914Z,85.61
2024-05-09T22:32:38.931Z,86.21
2024-05-09T22:35:25.880Z,85.46
2024-05-09T22:38:06.042Z,85.89
2024-05-09T22:40:49.065Z,85.23
2024-05-09T22:43:36.894Z,86.15
2024-05-09T22:46:31.081Z,85.78
2024-05-09T22:49:17.944Z,86.32
2024-05-09T22:51:50.995Z,86.26
2024-05-09T22:54:37.971Z,86.64
2024-05-09T22:57:11.973Z,86.75
2024-05-09T22:59:58.886Z,86.83
2024-05-09T23:02:32.076Z,87.54
2024-05-09T23:05:19.050Z,87.43
2024-05-09T23:07:53.022Z,87.35
2024-05-09T23:10:39.935Z,87.69
2024-05-09T23:13:13.349Z,87.90
2024-05-09T23:15:59.942Z,88.25
2024-05-09T23:18:40.421Z,87.66
2024-05-09T23:21:20.910Z,88.09
2024-05-09T23:24:00.997Z,87.96
2024-05-09T23:26:40.922Z,88.35
2024-05-09T23:29:34.925Z,88.07
2024-05-09T23:32:28.966Z,88.54
2024-05-09T23:35:15.904Z,88.88
2024-05-09T23:37:56.026Z,88.58
2024-05-09T23:40:39.610Z,88.85
2024-05-09T23:43:21.094Z,89.58
2024-05-09T23:46:01.023Z,89.18
2024-05-09T23:48:41.399Z,90.00
2024-05-09T23:51:21.963Z,89.74
2024-05-09T23:54:02.020Z,90.38
2024-05-09T23:56:41.917Z,90.16
2024-05-09T23:59:22.111Z,90.96
